sensor_id;sensor_type;location;lat;lon;timestamp;temperature;humidity
80426;DHT22;69766;51.476;5.704;2023-05-10T00:00:00;12.60;99.90
80426;DHT22;69766;51.476;5.704;2023-05-10T00:02:33;12.60;99.90
80426;DHT22;69766;51.476;5.704;2023-05-10T00:05:01;12.60;99.90
80426;DHT22;69766;51.476;5.704;2023-05-10T00:07:50;12.60;99.90
80426;DHT22;69766;51.476;5.704;2023-05-10T00:13:33;12.60;99.90
80426;DHT22;69766;51.476;5.704;2023-05-10T00:16:11;12.60;99.90
80426;DHT22;69766;51.476;5.704;2023-05-10T00:18:51;12.60;99.90
80426;DHT22;69766;51.476;5.704;2023-05-10T00:21:40;12.60;99.90
80426;DHT22;69766;51.476;5.704;2023-05-10T00:24:14;12.60;99.90
80426;DHT22;69766;51.476;5.704;2023-05-10T00:26:46;12.60;99.90
80426;DHT22;69766;51.476;5.704;2023-05-10T00:29:16;12.60;99.90
80426;DHT22;69766;51.476;5.704;2023-05-10T00:31:50;12.60;99.90
80426;DHT22;69766;51.476;5.704;2023-05-10T00:34:18;12.60;99.90
80426;DHT22;69766;51.476;5.704;2023-05-10T00:36:54;12.50;99.90
80426;DHT22;69766;51.476;5.704;2023-05-10T00:39:20;12.60;99.90
80426;DHT22;69766;51.476;5.704;2023-05-10T00:41:46;12.60;99.90
80426;DHT22;69766;51.476;5.704;2023-05-10T00:44:12;12.50;99.90
80426;DHT22;69766;51.476;5.704;2023-05-10T00:46:37;12.60;99.90
80426;DHT22;69766;51.476;5.704;2023-05-10T00:49:17;12.50;99.90
80426;DHT22;69766;51.476;5.704;2023-05-10T00:51:49;12.40;99.90
80426;DHT22;69766;51.476;5.704;2023-05-10T00:54:15;12.40;99.90
80426;DHT22;69766;51.476;5.704;2023-05-10T00:56:43;12.40;99.90
80426;DHT22;69766;51.476;5.704;2023-05-10T00:59:17;12.40;99.90
80426;DHT22;69766;51.476;5.704;2023-05-10T01:01:46;12.40;99.90
80426;DHT22;69766;51.476;5.704;2023-05-10T01:04:13;12.40;99.90
80426;DHT22;69766;51.476;5.704;2023-05-10T01:06:43;12.40;99.90
80426;DHT22;69766;51.476;5.704;2023-05-10T01:09:09;12.40;99.90
80426;DHT22;69766;51.476;5.704;2023-05-10T01:11:35;12.50;99.90
80426;DHT22;69766;51.476;5.704;2023-05-10T01:14:02;12.50;99.90
80426;DHT22;69766;51.476;5.704;2023-05-10T01:16:31;12.50;99.90
80426;DHT22;69766;51.476;5.704;2023-05-10T01:18:57;12.50;99.90
80426;DHT22;69766;51.476;5.704;2023-05-10T01:32:48;12.40;99.90
80426;DHT22;69766;51.476;5.704;2023-05-10T01:35:17;12.30;99.90
80426;DHT22;69766;51.476;5.704;2023-05-10T01:40:35;12.40;99.90
80426;DHT22;69766;51.476;5.704;2023-05-10T01:43:15;12.50;99.90
80426;DHT22;69766;51.476;5.704;2023-05-10T01:45:54;12.50;99.90
80426;DHT22;69766;51.476;5.704;2023-05-10T01:48:26;12.50;99.90
80426;DHT22;69766;51.476;5.704;2023-05-10T01:50:56;12.60;99.90
80426;DHT22;69766;51.476;5.704;2023-05-10T01:53:24;12.60;99.90
80426;DHT22;69766;51.476;5.704;2023-05-10T01:55:52;12.60;99.90
80426;DHT22;69766;51.476;5.704;2023-05-10T01:58:25;12.60;99.90
80426;DHT22;69766;51.476;5.704;2023-05-10T02:00:53;12.70;99.90
80426;DHT22;69766;51.476;5.704;2023-05-10T02:03:24;12.70;99.90
80426;DHT22;69766;51.476;5.704;2023-05-10T02:05:52;12.70;99.90
80426;DHT22;69766;51.476;5.704;2023-05-10T02:08:19;12.70;99.90
80426;DHT22;69766;51.476;5.704;2023-05-10T02:10:47;12.70;99.90
80426;DHT22;69766;51.476;5.704;2023-05-10T02:13:15;12.70;99.90
80426;DHT22;69766;51.476;5.704;2023-05-10T02:15:41;12.90;99.90
80426;DHT22;69766;51.476;5.704;2023-05-10T02:18:09;12.80;99.90
80426;DHT22;69766;51.476;5.704;2023-05-10T02:20:37;12.80;99.90
80426;DHT22;69766;51.476;5.704;2023-05-10T02:23:04;12.80;99.90
80426;DHT22;69766;51.476;5.704;2023-05-10T02:25:31;12.80;99.90
80426;DHT22;69766;51.476;5.704;2023-05-10T02:27:58;12.80;99.90
80426;DHT22;69766;51.476;5.704;2023-05-10T02:30:26;12.80;99.90
80426;DHT22;69766;51.476;5.704;2023-05-10T02:32:52;12.80;99.90
80426;DHT22;69766;51.476;5.704;2023-05-10T02:35:19;12.80;99.90
80426;DHT22;69766;51.476;5.704;2023-05-10T02:37:46;12.90;99.90
80426;DHT22;69766;51.476;5.704;2023-05-10T02:40:14;12.90;99.90
80426;DHT22;69766;51.476;5.704;2023-05-10T02:42:44;12.90;99.90
80426;DHT22;69766;51.476;5.704;2023-05-10T02:45:15;12.90;99.90
80426;DHT22;69766;51.476;5.704;2023-05-10T02:47:45;12.90;99.90
80426;DHT22;69766;51.476;5.704;2023-05-10T02:50:11;12.90;99.90
80426;DHT22;69766;51.476;5.704;2023-05-10T02:52:43;12.90;99.90
80426;DHT22;69766;51.476;5.704;2023-05-10T02:55:12;12.90;99.90
80426;DHT22;69766;51.476;5.704;2023-05-10T02:57:45;12.90;99.90
80426;DHT22;69766;51.476;5.704;2023-05-10T03:00:16;12.90;99.90
80426;DHT22;69766;51.476;5.704;2023-05-10T03:02:42;12.90;99.90
80426;DHT22;69766;51.476;5.704;2023-05-10T03:05:08;12.90;99.90
80426;DHT22;69766;51.476;5.704;2023-05-10T03:07:34;12.80;99.90
80426;DHT22;69766;51.476;5.704;2023-05-10T03:10:00;12.80;99.90
80426;DHT22;69766;51.476;5.704;2023-05-10T03:18:12;12.80;99.90
80426;DHT22;69766;51.476;5.704;2023-05-10T03:20:51;12.70;99.90
80426;DHT22;69766;51.476;5.704;2023-05-10T03:23:21;12.80;99.90
80426;DHT22;69766;51.476;5.704;2023-05-10T03:25:49;12.80;99.90
80426;DHT22;69766;51.476;5.704;2023-05-10T03:28:16;12.80;99.90
80426;DHT22;69766;51.476;5.704;2023-05-10T03:30:43;12.90;99.90
80426;DHT22;69766;51.476;5.704;2023-05-10T03:33:15;12.80;99.90
80426;DHT22;69766;51.476;5.704;2023-05-10T03:35:41;12.80;99.90
80426;DHT22;69766;51.476;5.704;2023-05-10T03:38:07;12.80;99.90
80426;DHT22;69766;51.476;5.704;2023-05-10T03:40:32;12.70;99.90
80426;DHT22;69766;51.476;5.704;2023-05-10T03:42:58;12.70;99.90
80426;DHT22;69766;51.476;5.704;2023-05-10T03:45:24;12.70;99.90
80426;DHT22;69766;51.476;5.704;2023-05-10T03:47:50;12.80;99.90
80426;DHT22;69766;51.476;5.704;2023-05-10T03:50:16;12.80;99.90
80426;DHT22;69766;51.476;5.704;2023-05-10T03:52:41;12.80;99.90
80426;DHT22;69766;51.476;5.704;2023-05-10T03:55:07;12.80;99.90
80426;DHT22;69766;51.476;5.704;2023-05-10T03:57:34;12.80;99.90
80426;DHT22;69766;51.476;5.704;2023-05-10T03:59:59;12.70;99.90
80426;DHT22;69766;51.476;5.704;2023-05-10T04:02:28;12.70;99.90
80426;DHT22;69766;51.476;5.704;2023-05-10T04:04:55;12.70;99.90
80426;DHT22;69766;51.476;5.704;2023-05-10T04:07:21;12.70;99.90
80426;DHT22;69766;51.476;5.704;2023-05-10T04:09:47;12.70;99.90
80426;DHT22;69766;51.476;5.704;2023-05-10T04:12:13;12.70;99.90
80426;DHT22;69766;51.476;5.704;2023-05-10T04:14:39;12.70;99.90
80426;DHT22;69766;51.476;5.704;2023-05-10T04:17:04;12.70;99.90
80426;DHT22;69766;51.476;5.704;2023-05-10T04:19:31;12.70;99.90
80426;DHT22;69766;51.476;5.704;2023-05-10T04:21:58;12.70;99.90
80426;DHT22;69766;51.476;5.704;2023-05-10T04:24:27;12.70;99.90
80426;DHT22;69766;51.476;5.704;2023-05-10T04:26:56;12.70;99.90
80426;DHT22;69766;51.476;5.704;2023-05-10T04:29:24;12.70;99.90
80426;DHT22;69766;51.476;5.704;2023-05-10T04:31:54;12.70;99.90
80426;DHT22;69766;51.476;5.704;2023-05-10T04:34:22;12.80;99.90
80426;DHT22;69766;51.476;5.704;2023-05-10T04:36:48;12.70;99.90
80426;DHT22;69766;51.476;5.704;2023-05-10T04:39:14;12.80;99.90
80426;DHT22;69766;51.476;5.704;2023-05-10T04:41:39;12.70;99.90
80426;DHT22;69766;51.476;5.704;2023-05-10T04:44:11;12.70;99.90
80426;DHT22;69766;51.476;5.704;2023-05-10T04:46:36;12.70;99.90
80426;DHT22;69766;51.476;5.704;2023-05-10T04:49:02;12.80;99.90
80426;DHT22;69766;51.476;5.704;2023-05-10T04:51:28;12.80;99.90
80426;DHT22;69766;51.476;5.704;2023-05-10T04:53:54;12.80;99.90
80426;DHT22;69766;51.476;5.704;2023-05-10T04:56:19;12.80;99.90
80426;DHT22;69766;51.476;5.704;2023-05-10T04:58:45;12.80;99.90
80426;DHT22;69766;51.476;5.704;2023-05-10T05:01:16;12.80;99.90
80426;DHT22;69766;51.476;5.704;2023-05-10T05:03:42;12.80;99.90
80426;DHT22;69766;51.476;5.704;2023-05-10T05:06:08;12.80;99.90
80426;DHT22;69766;51.476;5.704;2023-05-10T05:08:33;12.80;99.90
80426;DHT22;69766;51.476;5.704;2023-05-10T05:10:59;12.80;99.90
80426;DHT22;69766;51.476;5.704;2023-05-10T05:13:25;12.90;99.90
80426;DHT22;69766;51.476;5.704;2023-05-10T05:15:50;12.90;99.40
80426;DHT22;69766;51.476;5.704;2023-05-10T05:18:16;12.90;99.30
80426;DHT22;69766;51.476;5.704;2023-05-10T05:20:42;12.90;99.20
80426;DHT22;69766;51.476;5.704;2023-05-10T05:23:08;12.80;98.70
80426;DHT22;69766;51.476;5.704;2023-05-10T05:25:43;12.80;98.90
80426;DHT22;69766;51.476;5.704;2023-05-10T05:28:09;12.80;99.20
80426;DHT22;69766;51.476;5.704;2023-05-10T05:30:35;12.80;98.80
80426;DHT22;69766;51.476;5.704;2023-05-10T05:33:01;12.70;98.30
80426;DHT22;69766;51.476;5.704;2023-05-10T05:35:27;12.70;98.30
80426;DHT22;69766;51.476;5.704;2023-05-10T05:37:52;12.70;98.30
80426;DHT22;69766;51.476;5.704;2023-05-10T05:40:18;12.70;98.30
80426;DHT22;69766;51.476;5.704;2023-05-10T05:42:46;12.70;98.30
80426;DHT22;69766;51.476;5.704;2023-05-10T05:45:12;12.80;98.20
80426;DHT22;69766;51.476;5.704;2023-05-10T05:47:39;12.90;98.40
80426;DHT22;69766;51.476;5.704;2023-05-10T05:50:08;13.00;97.30
80426;DHT22;69766;51.476;5.704;2023-05-10T05:52:34;13.10;97.30
80426;DHT22;69766;51.476;5.704;2023-05-10T05:55:00;13.10;97.40
80426;DHT22;69766;51.476;5.704;2023-05-10T05:57:25;13.20;97.70
80426;DHT22;69766;51.476;5.704;2023-05-10T05:59:52;13.20;97.60
80426;DHT22;69766;51.476;5.704;2023-05-10T06:02:17;13.30;97.20
80426;DHT22;69766;51.476;5.704;2023-05-10T06:04:45;13.30;97.10
80426;DHT22;69766;51.476;5.704;2023-05-10T06:07:11;13.20;96.40
80426;DHT22;69766;51.476;5.704;2023-05-10T06:09:37;13.10;96.80
80426;DHT22;69766;51.476;5.704;2023-05-10T06:12:03;13.20;96.90
80426;DHT22;69766;51.476;5.704;2023-05-10T06:14:29;13.20;97.00
80426;DHT22;69766;51.476;5.704;2023-05-10T06:16:55;13.20;96.50
80426;DHT22;69766;51.476;5.704;2023-05-10T06:19:20;13.30;96.90
80426;DHT22;69766;51.476;5.704;2023-05-10T06:21:46;13.20;96.10
80426;DHT22;69766;51.476;5.704;2023-05-10T06:24:14;13.20;96.60
80426;DHT22;69766;51.476;5.704;2023-05-10T06:26:42;13.20;96.80
80426;DHT22;69766;51.476;5.704;2023-05-10T06:29:08;13.10;97.40
80426;DHT22;69766;51.476;5.704;2023-05-10T06:31:34;13.00;97.00
80426;DHT22;69766;51.476;5.704;2023-05-10T06:33:59;13.10;97.40
80426;DHT22;69766;51.476;5.704;2023-05-10T06:36:33;13.10;96.90
80426;DHT22;69766;51.476;5.704;2023-05-10T06:39:03;13.10;96.00
80426;DHT22;69766;51.476;5.704;2023-05-10T06:41:29;13.10;96.40
80426;DHT22;69766;51.476;5.704;2023-05-10T06:43:55;13.10;96.70
80426;DHT22;69766;51.476;5.704;2023-05-10T06:46:21;13.10;97.40
80426;DHT22;69766;51.476;5.704;2023-05-10T06:48:52;13.30;96.60
80426;DHT22;69766;51.476;5.704;2023-05-10T06:51:21;13.30;96.60
80426;DHT22;69766;51.476;5.704;2023-05-10T06:53:52;13.40;96.30
80426;DHT22;69766;51.476;5.704;2023-05-10T06:56:18;13.40;95.90
80426;DHT22;69766;51.476;5.704;2023-05-10T06:58:50;13.30;95.90
80426;DHT22;69766;51.476;5.704;2023-05-10T07:01:21;13.30;96.40
80426;DHT22;69766;51.476;5.704;2023-05-10T07:03:52;13.40;96.10
80426;DHT22;69766;51.476;5.704;2023-05-10T07:06:18;13.50;96.50
80426;DHT22;69766;51.476;5.704;2023-05-10T07:08:55;13.50;96.00
80426;DHT22;69766;51.476;5.704;2023-05-10T07:11:26;13.40;95.80
80426;DHT22;69766;51.476;5.704;2023-05-10T07:14:00;13.50;96.10
80426;DHT22;69766;51.476;5.704;2023-05-10T07:16:28;13.60;95.80
80426;DHT22;69766;51.476;5.704;2023-05-10T07:18:54;13.50;95.60
80426;DHT22;69766;51.476;5.704;2023-05-10T07:21:24;13.50;96.20
80426;DHT22;69766;51.476;5.704;2023-05-10T07:23:58;13.50;96.30
80426;DHT22;69766;51.476;5.704;2023-05-10T07:26:28;13.60;96.40
80426;DHT22;69766;51.476;5.704;2023-05-10T07:28:54;13.60;96.00
80426;DHT22;69766;51.476;5.704;2023-05-10T07:31:26;13.60;95.40
80426;DHT22;69766;51.476;5.704;2023-05-10T07:33:52;13.50;95.80
80426;DHT22;69766;51.476;5.704;2023-05-10T07:36:21;13.50;95.70
80426;DHT22;69766;51.476;5.704;2023-05-10T07:39:01;13.50;96.00
80426;DHT22;69766;51.476;5.704;2023-05-10T07:41:29;13.50;95.50
80426;DHT22;69766;51.476;5.704;2023-05-10T07:43:56;13.50;96.00
80426;DHT22;69766;51.476;5.704;2023-05-10T07:46:24;13.50;96.20
80426;DHT22;69766;51.476;5.704;2023-05-10T07:48:50;13.70;95.40
80426;DHT22;69766;51.476;5.704;2023-05-10T07:51:25;13.80;96.10
80426;DHT22;69766;51.476;5.704;2023-05-10T07:53:53;13.90;95.40
80426;DHT22;69766;51.476;5.704;2023-05-10T07:56:27;14.00;94.80
80426;DHT22;69766;51.476;5.704;2023-05-10T07:59:15;14.10;94.40
80426;DHT22;69766;51.476;5.704;2023-05-10T08:01:42;14.00;94.40
80426;DHT22;69766;51.476;5.704;2023-05-10T08:04:08;13.90;94.70
80426;DHT22;69766;51.476;5.704;2023-05-10T08:06:39;13.80;95.00
80426;DHT22;69766;51.476;5.704;2023-05-10T08:09:11;13.70;95.30
80426;DHT22;69766;51.476;5.704;2023-05-10T08:11:39;13.70;95.60
80426;DHT22;69766;51.476;5.704;2023-05-10T08:14:11;13.70;95.30
80426;DHT22;69766;51.476;5.704;2023-05-10T08:16:36;13.60;95.10
80426;DHT22;69766;51.476;5.704;2023-05-10T08:19:05;13.60;95.10
80426;DHT22;69766;51.476;5.704;2023-05-10T08:21:30;13.50;95.50
80426;DHT22;69766;51.476;5.704;2023-05-10T08:24:02;13.60;95.60
80426;DHT22;69766;51.476;5.704;2023-05-10T08:26:32;13.50;94.90
80426;DHT22;69766;51.476;5.704;2023-05-10T08:29:05;13.60;95.30
80426;DHT22;69766;51.476;5.704;2023-05-10T08:31:31;13.70;95.10
80426;DHT22;69766;51.476;5.704;2023-05-10T08:33:59;13.70;94.80
80426;DHT22;69766;51.476;5.704;2023-05-10T08:36:27;13.60;95.20
80426;DHT22;69766;51.476;5.704;2023-05-10T08:38:56;13.60;95.50
80426;DHT22;69766;51.476;5.704;2023-05-10T08:41:23;13.40;95.00
80426;DHT22;69766;51.476;5.704;2023-05-10T08:44:03;13.40;95.40
80426;DHT22;69766;51.476;5.704;2023-05-10T08:46:33;13.40;95.30
80426;DHT22;69766;51.476;5.704;2023-05-10T08:49:06;13.50;95.70
80426;DHT22;69766;51.476;5.704;2023-05-10T08:51:51;13.50;94.90
80426;DHT22;69766;51.476;5.704;2023-05-10T08:54:35;13.50;95.20
80426;DHT22;69766;51.476;5.704;2023-05-10T08:57:07;13.40;94.30
80426;DHT22;69766;51.476;5.704;2023-05-10T08:59:41;13.50;95.00
80426;DHT22;69766;51.476;5.704;2023-05-10T09:02:16;13.50;94.10
80426;DHT22;69766;51.476;5.704;2023-05-10T09:04:46;13.60;93.90
80426;DHT22;69766;51.476;5.704;2023-05-10T09:07:12;13.70;94.10
80426;DHT22;69766;51.476;5.704;2023-05-10T09:09:45;13.70;94.10
80426;DHT22;69766;51.476;5.704;2023-05-10T09:12:14;13.60;93.30
80426;DHT22;69766;51.476;5.704;2023-05-10T09:14:42;13.60;93.00
80426;DHT22;69766;51.476;5.704;2023-05-10T09:17:09;13.70;93.00
80426;DHT22;69766;51.476;5.704;2023-05-10T09:19:45;13.70;93.30
80426;DHT22;69766;51.476;5.704;2023-05-10T09:22:10;13.80;93.40
80426;DHT22;69766;51.476;5.704;2023-05-10T09:24:36;13.90;93.10
80426;DHT22;69766;51.476;5.704;2023-05-10T09:27:07;14.20;93.20
80426;DHT22;69766;51.476;5.704;2023-05-10T09:29:41;14.30;92.60
80426;DHT22;69766;51.476;5.704;2023-05-10T09:32:07;14.30;92.40
80426;DHT22;69766;51.476;5.704;2023-05-10T09:34:39;14.40;92.80
80426;DHT22;69766;51.476;5.704;2023-05-10T09:37:05;14.70;92.80
80426;DHT22;69766;51.476;5.704;2023-05-10T09:39:36;14.60;91.50
80426;DHT22;69766;51.476;5.704;2023-05-10T09:42:13;14.80;92.00
80426;DHT22;69766;51.476;5.704;2023-05-10T09:44:45;15.20;91.30
80426;DHT22;69766;51.476;5.704;2023-05-10T09:47:17;15.80;87.70
80426;DHT22;69766;51.476;5.704;2023-05-10T09:49:43;16.60;86.20
80426;DHT22;69766;51.476;5.704;2023-05-10T09:52:09;17.00;81.40
80426;DHT22;69766;51.476;5.704;2023-05-10T09:54:45;17.50;79.30
80426;DHT22;69766;51.476;5.704;2023-05-10T09:57:24;17.40;81.50
80426;DHT22;69766;51.476;5.704;2023-05-10T09:59:51;17.00;82.00
80426;DHT22;69766;51.476;5.704;2023-05-10T10:02:19;16.90;81.80
80426;DHT22;69766;51.476;5.704;2023-05-10T10:04:49;16.80;82.20
80426;DHT22;69766;51.476;5.704;2023-05-10T10:07:22;16.80;81.10
80426;DHT22;69766;51.476;5.704;2023-05-10T10:09:55;16.60;83.20
80426;DHT22;69766;51.476;5.704;2023-05-10T10:12:23;16.40;80.90
80426;DHT22;69766;51.476;5.704;2023-05-10T10:14:51;16.30;82.90
80426;DHT22;69766;51.476;5.704;2023-05-10T10:17:19;16.30;84.20
80426;DHT22;69766;51.476;5.704;2023-05-10T10:19:45;17.00;81.40
80426;DHT22;69766;51.476;5.704;2023-05-10T10:22:12;18.20;78.80
80426;DHT22;69766;51.476;5.704;2023-05-10T10:24:41;18.90;75.30
80426;DHT22;69766;51.476;5.704;2023-05-10T10:33:06;17.70;82.00
80426;DHT22;69766;51.476;5.704;2023-05-10T10:35:36;17.50;78.70
80426;DHT22;69766;51.476;5.704;2023-05-10T10:38:02;17.10;82.10
80426;DHT22;69766;51.476;5.704;2023-05-10T10:40:33;17.00;83.70
80426;DHT22;69766;51.476;5.704;2023-05-10T10:43:25;16.80;87.10
80426;DHT22;69766;51.476;5.704;2023-05-10T10:46:11;16.70;85.40
80426;DHT22;69766;51.476;5.704;2023-05-10T10:48:41;16.60;86.30
80426;DHT22;69766;51.476;5.704;2023-05-10T10:51:10;16.60;85.90
80426;DHT22;69766;51.476;5.704;2023-05-10T10:53:40;16.40;84.90
80426;DHT22;69766;51.476;5.704;2023-05-10T10:56:11;16.40;86.50
80426;DHT22;69766;51.476;5.704;2023-05-10T10:58:48;16.60;84.50
80426;DHT22;69766;51.476;5.704;2023-05-10T11:01:16;17.00;82.90
80426;DHT22;69766;51.476;5.704;2023-05-10T11:04:17;17.30;82.70
80426;DHT22;69766;51.476;5.704;2023-05-10T11:06:44;17.40;82.00
80426;DHT22;69766;51.476;5.704;2023-05-10T11:09:11;17.40;81.30
80426;DHT22;69766;51.476;5.704;2023-05-10T11:11:55;17.90;81.40
80426;DHT22;69766;51.476;5.704;2023-05-10T11:14:21;18.20;78.20
80426;DHT22;69766;51.476;5.704;2023-05-10T11:16:50;19.00;76.20
80426;DHT22;69766;51.476;5.704;2023-05-10T11:19:19;19.90;73.10
80426;DHT22;69766;51.476;5.704;2023-05-10T11:21:53;20.70;69.70
80426;DHT22;69766;51.476;5.704;2023-05-10T11:24:56;21.30;66.40
80426;DHT22;69766;51.476;5.704;2023-05-10T11:27:23;21.30;64.40
80426;DHT22;69766;51.476;5.704;2023-05-10T11:29:52;20.60;66.50
80426;DHT22;69766;51.476;5.704;2023-05-10T11:32:19;19.80;69.60
80426;DHT22;69766;51.476;5.704;2023-05-10T11:34:47;19.50;69.10
80426;DHT22;69766;51.476;5.704;2023-05-10T11:37:13;19.30;74.20
80426;DHT22;69766;51.476;5.704;2023-05-10T11:39:47;18.60;75.20
80426;DHT22;69766;51.476;5.704;2023-05-10T11:42:13;18.00;76.10
80426;DHT22;69766;51.476;5.704;2023-05-10T11:44:39;17.50;77.90
80426;DHT22;69766;51.476;5.704;2023-05-10T11:47:06;17.50;78.90
80426;DHT22;69766;51.476;5.704;2023-05-10T11:49:44;17.80;78.50
80426;DHT22;69766;51.476;5.704;2023-05-10T11:52:10;18.10;75.10
80426;DHT22;69766;51.476;5.704;2023-05-10T11:54:52;18.10;74.90
80426;DHT22;69766;51.476;5.704;2023-05-10T11:57:26;18.40;73.20
80426;DHT22;69766;51.476;5.704;2023-05-10T11:59:59;18.40;73.50
80426;DHT22;69766;51.476;5.704;2023-05-10T12:02:28;18.50;73.70
80426;DHT22;69766;51.476;5.704;2023-05-10T12:04:55;18.70;72.60
80426;DHT22;69766;51.476;5.704;2023-05-10T12:07:28;19.10;71.70
80426;DHT22;69766;51.476;5.704;2023-05-10T12:10:08;19.50;69.10
80426;DHT22;69766;51.476;5.704;2023-05-10T12:12:42;19.30;71.50
80426;DHT22;69766;51.476;5.704;2023-05-10T12:15:16;19.30;71.40
80426;DHT22;69766;51.476;5.704;2023-05-10T12:17:46;19.20;72.20
80426;DHT22;69766;51.476;5.704;2023-05-10T12:20:26;19.20;73.10
80426;DHT22;69766;51.476;5.704;2023-05-10T12:22:58;18.90;72.60
80426;DHT22;69766;51.476;5.704;2023-05-10T12:25:33;18.60;72.50
80426;DHT22;69766;51.476;5.704;2023-05-10T12:28:00;18.30;72.60
80426;DHT22;69766;51.476;5.704;2023-05-10T12:30:36;18.40;75.00
80426;DHT22;69766;51.476;5.704;2023-05-10T12:33:16;18.50;72.80
80426;DHT22;69766;51.476;5.704;2023-05-10T12:35:52;17.90;77.90
80426;DHT22;69766;51.476;5.704;2023-05-10T12:38:37;17.10;81.70
80426;DHT22;69766;51.476;5.704;2023-05-10T12:41:12;16.60;85.40
80426;DHT22;69766;51.476;5.704;2023-05-10T12:43:43;16.30;87.30
80426;DHT22;69766;51.476;5.704;2023-05-10T12:46:17;16.00;89.70
80426;DHT22;69766;51.476;5.704;2023-05-10T12:48:44;15.70;89.70
80426;DHT22;69766;51.476;5.704;2023-05-10T12:51:26;15.60;90.20
80426;DHT22;69766;51.476;5.704;2023-05-10T12:53:55;15.40;91.10
80426;DHT22;69766;51.476;5.704;2023-05-10T12:56:26;15.40;91.20
80426;DHT22;69766;51.476;5.704;2023-05-10T12:58:52;15.40;91.10
80426;DHT22;69766;51.476;5.704;2023-05-10T13:01:20;15.30;90.90
80426;DHT22;69766;51.476;5.704;2023-05-10T13:03:51;15.30;91.30
80426;DHT22;69766;51.476;5.704;2023-05-10T13:06:20;15.30;90.70
80426;DHT22;69766;51.476;5.704;2023-05-10T13:08:49;15.30;90.90
80426;DHT22;69766;51.476;5.704;2023-05-10T13:11:15;15.30;91.50
80426;DHT22;69766;51.476;5.704;2023-05-10T13:13:46;15.50;90.80
80426;DHT22;69766;51.476;5.704;2023-05-10T13:16:12;15.50;91.60
80426;DHT22;69766;51.476;5.704;2023-05-10T13:18:41;15.60;90.80
80426;DHT22;69766;51.476;5.704;2023-05-10T13:21:07;15.50;90.40
80426;DHT22;69766;51.476;5.704;2023-05-10T13:23:33;15.70;91.00
80426;DHT22;69766;51.476;5.704;2023-05-10T13:25:59;15.90;90.00
80426;DHT22;69766;51.476;5.704;2023-05-10T13:28:25;16.20;89.80
80426;DHT22;69766;51.476;5.704;2023-05-10T13:30:51;16.20;88.70
80426;DHT22;69766;51.476;5.704;2023-05-10T13:33:17;16.20;86.80
80426;DHT22;69766;51.476;5.704;2023-05-10T13:35:44;16.50;86.00
80426;DHT22;69766;51.476;5.704;2023-05-10T13:38:09;16.50;86.40
80426;DHT22;69766;51.476;5.704;2023-05-10T13:40:37;16.50;84.70
80426;DHT22;69766;51.476;5.704;2023-05-10T13:43:06;16.20;84.00
80426;DHT22;69766;51.476;5.704;2023-05-10T13:45:31;16.30;84.80
80426;DHT22;69766;51.476;5.704;2023-05-10T13:48:03;16.30;87.10
80426;DHT22;69766;51.476;5.704;2023-05-10T13:50:29;16.20;84.20
80426;DHT22;69766;51.476;5.704;2023-05-10T13:52:58;16.20;85.30
80426;DHT22;69766;51.476;5.704;2023-05-10T13:55:24;16.20;88.00
80426;DHT22;69766;51.476;5.704;2023-05-10T13:57:50;16.10;86.00
80426;DHT22;69766;51.476;5.704;2023-05-10T14:00:16;16.00;90.50
80426;DHT22;69766;51.476;5.704;2023-05-10T14:02:42;16.10;90.20
80426;DHT22;69766;51.476;5.704;2023-05-10T14:05:10;16.00;90.90
80426;DHT22;69766;51.476;5.704;2023-05-10T14:07:39;16.10;90.20
80426;DHT22;69766;51.476;5.704;2023-05-10T14:10:05;16.10;90.60
80426;DHT22;69766;51.476;5.704;2023-05-10T14:12:34;16.10;90.40
80426;DHT22;69766;51.476;5.704;2023-05-10T14:15:03;16.00;90.90
80426;DHT22;69766;51.476;5.704;2023-05-10T14:17:32;16.00;90.80
80426;DHT22;69766;51.476;5.704;2023-05-10T14:19:57;16.00;90.70
80426;DHT22;69766;51.476;5.704;2023-05-10T14:22:26;15.90;91.60
80426;DHT22;69766;51.476;5.704;2023-05-10T14:24:54;15.60;90.60
80426;DHT22;69766;51.476;5.704;2023-05-10T14:27:20;15.50;91.00
80426;DHT22;69766;51.476;5.704;2023-05-10T14:29:56;15.40;90.80
80426;DHT22;69766;51.476;5.704;2023-05-10T14:32:21;15.30;91.60
80426;DHT22;69766;51.476;5.704;2023-05-10T14:34:55;15.20;91.80
80426;DHT22;69766;51.476;5.704;2023-05-10T14:37:21;15.10;92.20
80426;DHT22;69766;51.476;5.704;2023-05-10T14:39:46;15.00;92.90
80426;DHT22;69766;51.476;5.704;2023-05-10T14:42:12;14.90;93.60
80426;DHT22;69766;51.476;5.704;2023-05-10T14:44:38;14.90;94.40
80426;DHT22;69766;51.476;5.704;2023-05-10T14:47:04;14.70;94.80
80426;DHT22;69766;51.476;5.704;2023-05-10T14:49:33;14.60;95.30
80426;DHT22;69766;51.476;5.704;2023-05-10T14:52:01;14.50;95.50
80426;DHT22;69766;51.476;5.704;2023-05-10T14:54:32;14.50;95.90
80426;DHT22;69766;51.476;5.704;2023-05-10T14:57:04;14.30;95.90
80426;DHT22;69766;51.476;5.704;2023-05-10T14:59:39;14.30;96.50
80426;DHT22;69766;51.476;5.704;2023-05-10T15:02:13;14.40;97.00
80426;DHT22;69766;51.476;5.704;2023-05-10T15:08:21;14.30;97.70
80426;DHT22;69766;51.476;5.704;2023-05-10T15:10:49;14.40;97.00
80426;DHT22;69766;51.476;5.704;2023-05-10T15:13:34;14.50;96.80
80426;DHT22;69766;51.476;5.704;2023-05-10T15:16:06;14.70;96.60
80426;DHT22;69766;51.476;5.704;2023-05-10T15:18:34;14.80;96.70
80426;DHT22;69766;51.476;5.704;2023-05-10T15:21:07;14.80;96.10
80426;DHT22;69766;51.476;5.704;2023-05-10T15:23:34;15.00;95.20
80426;DHT22;69766;51.476;5.704;2023-05-10T15:26:03;14.90;95.20
80426;DHT22;69766;51.476;5.704;2023-05-10T15:28:46;14.90;95.00
80426;DHT22;69766;51.476;5.704;2023-05-10T15:31:30;14.90;94.20
80426;DHT22;69766;51.476;5.704;2023-05-10T15:34:16;15.00;94.80
80426;DHT22;69766;51.476;5.704;2023-05-10T15:36:51;14.90;94.30
80426;DHT22;69766;51.476;5.704;2023-05-10T15:39:39;15.00;95.10
80426;DHT22;69766;51.476;5.704;2023-05-10T15:42:13;14.90;94.30
80426;DHT22;69766;51.476;5.704;2023-05-10T15:44:47;14.90;93.80
80426;DHT22;69766;51.476;5.704;2023-05-10T15:47:40;14.80;94.90
80426;DHT22;69766;51.476;5.704;2023-05-10T15:50:12;14.80;95.10
80426;DHT22;69766;51.476;5.704;2023-05-10T15:52:38;14.80;94.00
80426;DHT22;69766;51.476;5.704;2023-05-10T15:55:10;14.90;94.20
80426;DHT22;69766;51.476;5.704;2023-05-10T15:57:40;14.90;94.00
80426;DHT22;69766;51.476;5.704;2023-05-10T16:00:13;14.90;94.00
80426;DHT22;69766;51.476;5.704;2023-05-10T16:02:42;14.90;94.40
80426;DHT22;69766;51.476;5.704;2023-05-10T16:05:10;14.90;93.80
80426;DHT22;69766;51.476;5.704;2023-05-10T16:07:49;14.90;94.50
80426;DHT22;69766;51.476;5.704;2023-05-10T16:10:15;14.90;94.20
80426;DHT22;69766;51.476;5.704;2023-05-10T16:12:44;14.90;94.10
80426;DHT22;69766;51.476;5.704;2023-05-10T16:15:10;14.90;95.40
80426;DHT22;69766;51.476;5.704;2023-05-10T16:17:39;14.90;94.90